Time;durP1;ratioP1;P1;durP2;ratioP2;P2;SDS_P1;SDS_P2;PMS_P1;PMS_P2;Temp;Humidity;BMP_temperature;BMP_pressure;BME280_temperature;BME280_humidity;BME280_pressure;Samples;Min_cycle;Max_cycle;Signal;HPM_P1;HPM_P2
2023/05/01 06:40:48;;;;;;;;;60.50;48.00;;;;;-145.45;100.00;57426.63;6185532;22;45752;-70
2023/05/01 06:43:13;;;;;;;;;60.25;48.00;;;;;-145.45;100.00;57426.63;6212498;22;46222;-70
2023/05/01 06:45:40;;;;;;;;;60.25;47.00;;;;;-145.45;100.00;57426.63;6214028;22;45235;-69
2023/05/01 06:48:05;;;;;;;;;53.25;41.75;;;;;-145.45;100.00;57426.63;6214654;22;45245;-69
2023/05/01 06:50:30;;;;;;;;;59.75;46.75;;;;;-145.45;100.00;57426.63;6214239;22;45121;-71
2023/05/01 06:52:58;;;;;;;;;59.75;47.25;;;;;-145.45;100.00;57426.63;6213703;22;45926;-70
2023/05/01 06:55:24;;;;;;;;;54.75;43.00;;;;;-145.45;100.00;57426.63;6214190;22;45258;-70
2023/05/01 06:57:49;;;;;;;;;55.75;45.00;;;;;-145.45;100.00;57426.63;6213826;22;45283;-70
2023/05/01 07:00:16;;;;;;;;;51.75;43.25;;;;;-145.45;100.00;57426.63;6216303;22;45228;-70
2023/05/01 07:02:41;;;;;;;;;53.75;41.50;;;;;-145.45;100.00;57426.63;6216051;22;45338;-71
2023/05/01 07:05:07;;;;;;;;;58.00;43.50;;;;;-145.45;100.00;57426.63;6216071;22;45238;-71
2023/05/01 07:07:32;;;;;;;;;50.00;42.50;;;;;-145.45;100.00;57426.63;6216314;22;45244;-72
2023/05/01 07:09:57;;;;;;;;;54.75;41.75;;;;;-145.45;100.00;57426.63;6213942;22;46527;-71
2023/05/01 07:12:23;;;;;;;;;51.50;42.25;;;;;-145.45;100.00;57426.63;6215275;22;51644;-69
2023/05/01 07:14:48;;;;;;;;;54.00;42.75;;;;;-145.45;100.00;57426.63;6215855;22;45249;-71
2023/05/01 07:17:14;;;;;;;;;49.75;40.00;;;;;-145.45;100.00;57426.63;6213529;22;52072;-71
2023/05/01 07:19:40;;;;;;;;;40.75;34.50;;;;;-145.45;100.00;57426.63;6215948;22;45165;-70
2023/05/01 07:22:05;;;;;;;;;40.25;34.50;;;;;-145.45;100.00;57426.63;6238871;22;46009;-71
2023/05/01 07:24:31;;;;;;;;;38.50;33.00;;;;;-145.45;100.00;57426.63;6213776;22;45594;-70
2023/05/01 07:26:56;;;;;;;;;50.75;35.50;;;;;-145.45;100.00;57426.63;6212906;22;45205;-71
2023/05/01 07:29:22;;;;;;;;;34.25;29.25;;;;;-145.45;100.00;57426.63;6216253;22;45249;-71
2023/05/01 07:31:47;;;;;;;;;40.00;31.00;;;;;-145.45;100.00;57426.63;6215744;22;45885;-71
2023/05/01 07:34:12;;;;;;;;;30.25;28.25;;;;;-145.45;100.00;57426.63;6215570;22;50569;-71
2023/05/01 07:36:38;;;;;;;;;33.50;28.25;;;;;-145.45;100.00;57426.63;6215920;22;45157;-71
2023/05/01 07:39:03;;;;;;;;;25.25;23.25;;;;;-145.45;100.00;57426.63;6216509;22;45274;-72
2023/05/01 07:41:30;;;;;;;;;25.00;24.00;;;;;-145.45;100.00;57426.63;6226018;22;46087;-72
2023/05/01 07:43:58;;;;;;;;;26.50;23.00;;;;;-145.45;100.00;57426.63;6246721;22;45288;-70
2023/05/01 07:46:23;;;;;;;;;25.50;23.50;;;;;-145.45;100.00;57426.63;6246621;22;45193;-72
2023/05/01 07:48:48;;;;;;;;;21.25;17.50;;;;;-145.45;100.00;57426.63;6245949;22;50500;-73
2023/05/01 07:51:14;;;;;;;;;27.75;26.75;;;;;-145.45;100.00;57426.63;6246159;22;45951;-71
2023/05/01 07:53:41;;;;;;;;;25.67;22.33;;;;;-145.45;100.00;57426.63;6246635;22;45213;-71
2023/05/01 07:56:07;;;;;;;;;22.67;19.33;;;;;-145.45;100.00;57426.63;6245671;22;45211;-71
2023/05/01 07:58:34;;;;;;;;;26.00;23.00;;;;;-145.45;100.00;57426.63;6246055;22;45242;-71
2023/05/01 08:01:00;;;;;;;;;30.00;26.25;;;;;-145.45;100.00;57426.63;6246092;22;45315;-71
2023/05/01 08:03:28;;;;;;;;;31.50;28.00;;;;;-145.45;100.00;57426.63;6246460;22;45268;-72
2023/05/01 08:05:53;;;;;;;;;25.75;24.75;;;;;-145.45;100.00;57426.63;6246689;22;45299;-72
2023/05/01 08:08:20;;;;;;;;;30.25;22.25;;;;;-145.45;100.00;57426.63;6246616;22;45086;-71
2023/05/01 08:10:46;;;;;;;;;28.25;25.00;;;;;-145.45;100.00;57426.63;6244729;22;46238;-72
2023/05/01 08:13:11;;;;;;;;;27.50;24.50;;;;;-145.45;100.00;57426.63;6246652;22;45178;-73
2023/05/01 08:15:38;;;;;;;;;23.50;22.50;;;;;-145.45;100.00;57426.63;6247774;22;45260;-73
2023/05/01 08:18:03;;;;;;;;;29.25;25.75;;;;;-145.45;100.00;57426.63;6246771;22;45213;-72
2023/05/01 08:20:29;;;;;;;;;24.75;23.00;;;;;-145.45;100.00;57426.63;6219193;22;45411;-74
2023/05/01 08:22:54;;;;;;;;;31.50;26.25;;;;;-145.45;100.00;57426.63;6248284;22;45358;-72
2023/05/01 08:25:20;;;;;;;;;32.25;28.00;;;;;-145.45;100.00;57426.63;6246423;22;45587;-73
2023/05/01 08:27:45;;;;;;;;;26.25;25.00;;;;;-145.45;100.00;57426.63;6219562;22;45286;-72
2023/05/01 08:30:11;;;;;;;;;36.75;33.00;;;;;-145.45;100.00;57426.63;6219009;22;46219;-71
2023/05/01 08:32:36;;;;;;;;;27.50;24.00;;;;;-145.45;100.00;57426.63;6246058;22;45320;-72
2023/05/01 08:35:01;;;;;;;;;33.00;28.25;;;;;-145.45;100.00;57426.63;6246442;22;45273;-72
2023/05/01 08:37:26;;;;;;;;;32.50;29.75;;;;;-145.45;100.00;57426.63;6246459;22;45458;-72
2023/05/01 08:39:52;;;;;;;;;37.00;33.00;;;;;-145.45;100.00;57426.63;6246161;22;45501;-72
2023/05/01 08:42:17;;;;;;;;;24.50;21.00;;;;;-145.45;100.00;57426.63;6244824;22;45469;-72
2023/05/01 08:44:45;;;;;;;;;30.50;27.25;;;;;-145.45;100.00;57426.63;6246228;22;45233;-72
2023/05/01 08:47:16;;;;;;;;;27.00;23.00;;;;;-145.45;100.00;57426.63;6246495;22;45233;-72
2023/05/01 08:49:41;;;;;;;;;24.00;20.25;;;;;-145.45;100.00;57426.63;6246356;22;45274;-73
2023/05/01 08:52:09;;;;;;;;;23.67;22.00;;;;;-145.45;100.00;57426.63;6241535;22;45342;-73
2023/05/01 08:54:38;;;;;;;;;28.00;21.33;;;;;-145.45;100.00;57426.63;6215636;22;45276;-72
2023/05/01 08:57:08;;;;;;;;;28.00;24.33;;;;;-145.45;100.00;57426.63;6216317;22;46839;-72
2023/05/01 08:59:34;;;;;;;;;20.67;19.67;;;;;-145.45;100.00;57426.63;6245542;22;45260;-73
2023/05/01 09:02:03;;;;;;;;;26.00;22.33;;;;;-145.45;100.00;57426.63;6246007;22;45225;-72
2023/05/01 09:04:31;;;;;;;;;21.33;18.67;;;;;-145.45;100.00;57426.63;6246665;22;45153;-72
2023/05/01 09:06:59;;;;;;;;;18.67;18.00;;;;;-145.45;100.00;57426.63;6245763;22;45261;-73
2023/05/01 09:09:25;;;;;;;;;21.67;17.33;;;;;-145.45;100.00;57426.63;6244346;22;45553;-72
2023/05/01 09:11:54;;;;;;;;;23.67;19.67;;;;;-145.45;100.00;57426.63;6243623;22;45275;-72
2023/05/01 09:14:19;;;;;;;;;15.67;15.00;;;;;-145.45;100.00;57426.63;6245428;22;45229;-72
2023/05/01 09:16:45;;;;;;;;;18.67;18.00;;;;;-145.45;100.00;57426.63;6242080;22;45866;-72
2023/05/01 09:19:10;;;;;;;;;20.00;14.33;;;;;-145.45;100.00;57426.63;6245583;22;45236;-72
2023/05/01 09:21:35;;;;;;;;;15.00;14.67;;;;;-145.45;100.00;57426.63;6244509;22;45213;-73
2023/05/01 09:24:01;;;;;;;;;19.00;18.00;;;;;-145.45;100.00;57426.63;6245214;22;45699;-72
2023/05/01 09:26:27;;;;;;;;;17.00;15.00;;;;;-145.45;100.00;57426.63;6216887;22;46420;-72
2023/05/01 09:28:56;;;;;;;;;17.67;17.67;;;;;-145.45;100.00;57426.63;6244628;22;46144;-73
2023/05/01 09:31:31;;;;;;;;;17.00;17.00;;;;;-145.45;100.00;57426.63;6242208;22;45221;-73
2023/05/01 09:34:02;;;;;;;;;15.67;13.67;;;;;-145.45;100.00;57426.63;6216631;22;45337;-73
2023/05/01 09:36:29;;;;;;;;;11.33;11.00;;;;;-145.45;100.00;57426.63;6245162;22;45355;-74
2023/05/01 09:39:04;;;;;;;;;16.00;14.33;;;;;-145.45;100.00;57426.63;6244775;22;45210;-73
2023/05/01 09:41:32;;;;;;;;;15.00;14.67;;;;;-145.45;100.00;57426.63;6216483;22;45417;-76
2023/05/01 09:43:58;;;;;;;;;12.00;12.00;;;;;-145.45;100.00;57426.63;6217581;22;45204;-72
2023/05/01 09:46:25;;;;;;;;;12.00;10.00;;;;;-145.45;100.00;57426.63;6245581;22;45281;-72
2023/05/01 09:48:58;;;;;;;;;12.00;11.00;;;;;-145.45;100.00;57426.63;6246864;22;45252;-72
2023/05/01 09:51:28;;;;;;;;;10.33;7.00;;;;;-145.45;100.00;57426.63;6244991;22;45164;-72
2023/05/01 09:53:59;;;;;;;;;10.67;9.00;;;;;-145.45;100.00;57426.63;6218371;22;45307;-73
2023/05/01 09:56:28;;;;;;;;;17.00;13.00;;;;;-145.45;100.00;57426.63;6243310;22;45316;-72
2023/05/01 09:58:55;;;;;;;;;13.33;12.33;;;;;-145.45;100.00;57426.63;6243907;22;46278;-72
2023/05/01 10:01:40;;;;;;;;;11.00;8.00;;;;;-145.45;100.00;57426.63;6243830;22;45410;-72
2023/05/01 10:04:06;;;;;;;;;16.00;13.33;;;;;-145.45;100.00;57426.63;6245216;22;45289;-73
2023/05/01 10:06:31;;;;;;;;;12.00;9.67;;;;;-145.45;100.00;57426.63;6242438;22;45300;-71
2023/05/01 10:08:57;;;;;;;;;11.67;10.00;;;;;-145.45;100.00;57426.63;6245122;22;45496;-72
2023/05/01 10:11:22;;;;;;;;;16.00;16.00;;;;;-145.45;100.00;57426.63;6243779;22;45541;-72
2023/05/01 10:14:08;;;;;;;;;13.33;12.00;;;;;-145.45;100.00;57426.63;6244876;22;45522;-72
2023/05/01 10:16:36;;;;;;;;;15.00;15.00;;;;;-145.45;100.00;57426.63;6244145;22;45410;-71
2023/05/01 10:19:03;;;;;;;;;15.00;13.00;;;;;-145.45;100.00;57426.63;6244670;22;46403;-72
2023/05/01 10:21:32;;;;;;;;;16.00;14.33;;;;;-145.45;100.00;57426.63;6244060;22;45559;-73
2023/05/01 10:23:59;;;;;;;;;16.00;15.00;;;;;-145.45;100.00;57426.63;6244697;22;45329;-72
2023/05/01 10:26:25;;;;;;;;;18.33;16.33;;;;;-145.45;100.00;57426.63;6216968;22;45357;-72
2023/05/01 10:28:51;;;;;;;;;18.67;16.67;;;;;-145.45;100.00;57426.63;6244713;22;45669;-73
2023/05/01 10:31:17;;;;;;;;;17.00;14.67;;;;;-145.45;100.00;57426.63;6218842;22;45351;-74
2023/05/01 10:33:44;;;;;;;;;14.00;14.00;;;;;-145.45;100.00;57426.63;6216493;22;45659;-72
2023/05/01 10:36:15;;;;;;;;;12.67;12.67;;;;;-145.45;100.00;57426.63;6246058;22;45226;-71
2023/05/01 10:38:46;;;;;;;;;19.33;18.33;;;;;-145.45;100.00;57426.63;6246134;22;47006;-72
2023/05/01 10:41:12;;;;;;;;;15.67;15.67;;;;;-145.45;100.00;57426.63;6243729;22;45257;-72
2023/05/01 10:43:37;;;;;;;;;13.00;13.00;;;;;-145.45;100.00;57426.63;6247607;22;45395;-73
2023/05/01 10:46:06;;;;;;;;;20.67;14.67;;;;;-145.45;100.00;57426.63;6246738;22;45312;-73
2023/05/01 10:48:41;;;;;;;;;17.00;14.33;;;;;-145.45;100.00;57426.63;6217937;22;47570;-72
2023/05/01 10:51:13;;;;;;;;;14.33;13.67;;;;;-145.45;100.00;57426.63;6216960;22;45361;-72
2023/05/01 10:53:40;;;;;;;;;16.00;15.00;;;;;-145.45;100.00;57426.63;6217819;22;45278;-73
2023/05/01 10:56:31;;;;;;;;;17.33;16.33;;;;;-145.45;100.00;57426.63;6217433;22;45978;-73
2023/05/01 10:59:03;;;;;;;;;16.00;13.67;;;;;-145.45;100.00;57426.63;6244695;22;45234;-73
2023/05/01 11:01:39;;;;;;;;;12.00;12.00;;;;;-145.45;100.00;57426.63;6218129;22;45359;-73
2023/05/01 11:04:26;;;;;;;;;15.00;13.33;;;;;-145.45;100.00;57426.63;6244761;22;45280;-73
2023/05/01 11:07:04;;;;;;;;;19.33;16.33;;;;;-145.45;100.00;57426.63;6218911;22;45878;-74
2023/05/01 11:09:44;;;;;;;;;20.67;17.67;;;;;-145.45;100.00;57426.63;6248014;22;45559;-72
2023/05/01 11:12:11;;;;;;;;;15.67;13.33;;;;;-145.45;100.00;57426.63;6247188;22;45158;-73
2023/05/01 11:15:16;;;;;;;;;19.33;18.67;;;;;-145.45;100.00;57426.63;6248545;22;45138;-73
2023/05/01 11:17:40;;;;;;;;;14.67;13.67;;;;;-145.45;100.00;57426.63;6246196;22;45265;-73
2023/05/01 11:20:06;;;;;;;;;16.67;15.00;;;;;-145.45;100.00;57426.63;6246874;22;45393;-72
2023/05/01 11:22:32;;;;;;;;;12.33;11.00;;;;;-145.45;100.00;57426.63;6246931;22;45240;-73
2023/05/01 11:24:59;;;;;;;;;13.33;12.00;;;;;-145.45;100.00;57426.63;6246774;22;45237;-72
2023/05/01 11:27:25;;;;;;;;;13.00;13.00;;;;;-145.45;100.00;57426.63;6246085;22;45249;-72
2023/05/01 11:29:52;;;;;;;;;11.67;8.67;;;;;-145.45;100.00;57426.63;6246142;22;45281;-72
2023/05/01 11:32:23;;;;;;;;;15.67;15.67;;;;;-145.45;100.00;57426.63;6246270;22;45288;-71
2023/05/01 11:34:50;;;;;;;;;12.33;11.67;;;;;-145.45;100.00;57426.63;6246352;22;45146;-72
2023/05/01 11:37:15;;;;;;;;;11.67;11.67;;;;;-145.45;100.00;57426.63;6246044;22;45381;-73
2023/05/01 11:39:48;;;;;;;;;8.00;8.00;;;;;-145.45;100.00;57426.63;6246675;22;46364;-73
2023/05/01 11:42:13;;;;;;;;;8.00;6.67;;;;;-145.45;100.00;57426.63;6245723;22;45180;-72
2023/05/01 11:44:39;;;;;;;;;10.00;8.33;;;;;-145.45;100.00;57426.63;6245687;22;53402;-72
2023/05/01 11:47:06;;;;;;;;;9.67;8.67;;;;;-145.45;100.00;57426.63;6246135;22;51336;-73
2023/05/01 11:49:31;;;;;;;;;9.67;8.33;;;;;-145.45;100.00;57426.63;6218919;22;45296;-73
2023/05/01 11:51:57;;;;;;;;;7.67;7.67;;;;;-145.45;100.00;57426.63;6246495;22;45264;-71
2023/05/01 11:54:23;;;;;;;;;6.33;6.33;;;;;-145.45;100.00;57426.63;6247359;22;45245;-70
2023/05/01 11:56:57;;;;;;;;;3.67;2.67;;;;;-145.45;100.00;57426.63;6245558;22;45406;-73
2023/05/01 11:59:22;;;;;;;;;3.67;3.67;;;;;-145.45;100.00;57426.63;6246806;22;45337;-73
2023/05/01 12:01:48;;;;;;;;;2.33;2.33;;;;;-145.45;100.00;57426.63;6246188;22;45271;-72
2023/05/01 12:04:23;;;;;;;;;1.33;1.33;;;;;-145.45;100.00;57426.63;6246053;22;45478;-72
2023/05/01 12:06:49;;;;;;;;;1.33;0.33;;;;;-145.45;100.00;57426.63;6246074;22;45304;-74
2023/05/01 12:09:17;;;;;;;;;6.67;6.33;;;;;-145.45;100.00;57426.63;6246040;22;45162;-74
2023/05/01 12:11:44;;;;;;;;;3.00;3.00;;;;;-145.45;100.00;57426.63;6245309;22;45324;-74
2023/05/01 12:14:11;;;;;;;;;9.00;6.67;;;;;-145.45;100.00;57426.63;6245921;22;45345;-74
2023/05/01 12:16:39;;;;;;;;;16.33;15.00;;;;;-145.45;100.00;57426.63;6245463;22;45384;-75
2023/05/01 12:19:05;;;;;;;;;1.00;1.00;;;;;-145.45;100.00;57426.63;6245226;22;46062;-74
2023/05/01 12:21:31;;;;;;;;;2.67;2.67;;;;;-145.45;100.00;57426.63;6217212;22;45313;-74
2023/05/01 12:24:14;;;;;;;;;1.00;1.00;;;;;-145.45;100.00;57426.63;6245101;22;45265;-75
2023/05/01 12:26:40;;;;;;;;;3.67;2.33;;;;;-145.45;100.00;57426.63;6242707;22;45373;-74
2023/05/01 12:29:07;;;;;;;;;1.00;1.00;;;;;-145.45;100.00;57426.63;6244991;22;45204;-75
2023/05/01 12:31:33;;;;;;;;;1.00;1.00;;;;;-145.45;100.00;57426.63;6243686;22;45187;-73
2023/05/01 12:34:02;;;;;;;;;2.33;1.00;;;;;-145.45;100.00;57426.63;6244138;22;45276;-74
2023/05/01 12:36:33;;;;;;;;;3.67;2.00;;;;;-145.45;100.00;57426.63;6245112;22;45296;-74
2023/05/01 12:39:03;;;;;;;;;3.00;3.00;;;;;-145.45;100.00;57426.63;6217361;22;47621;-74
2023/05/01 12:41:35;;;;;;;;;3.67;1.67;;;;;-145.45;100.00;57426.63;6244509;22;45288;-73
2023/05/01 12:44:00;;;;;;;;;4.00;2.00;;;;;-145.45;100.00;57426.63;6242149;22;45360;-74
2023/05/01 12:46:26;;;;;;;;;3.67;3.00;;;;;-145.45;100.00;57426.63;6243716;22;45241;-73
2023/05/01 12:48:52;;;;;;;;;2.33;2.33;;;;;-145.45;100.00;57426.63;6244233;22;45432;-72
2023/05/01 12:51:21;;;;;;;;;5.00;5.00;;;;;-145.45;100.00;57426.63;6215313;22;45675;-73
2023/05/01 12:53:47;;;;;;;;;4.00;4.00;;;;;-145.45;100.00;57426.63;6217989;22;45258;-73
2023/05/01 12:56:24;;;;;;;;;5.33;4.00;;;;;-145.45;100.00;57426.63;6244248;22;45188;-73
2023/05/01 12:58:50;;;;;;;;;5.33;5.33;;;;;-145.45;100.00;57426.63;6245850;22;46105;-74
2023/05/01 13:01:27;;;;;;;;;8.33;6.00;;;;;-145.45;100.00;57426.63;6246214;22;45371;-73
2023/05/01 13:03:55;;;;;;;;;7.33;5.00;;;;;-145.45;100.00;57426.63;6219081;22;45269;-73
2023/05/01 13:06:21;;;;;;;;;6.33;6.33;;;;;-145.45;100.00;57426.63;6244982;22;45130;-74
2023/05/01 13:08:47;;;;;;;;;6.00;5.00;;;;;-145.45;100.00;57426.63;6244598;22;45229;-74
2023/05/01 13:11:14;;;;;;;;;10.33;7.33;;;;;-145.45;100.00;57426.63;6216299;22;45237;-75
2023/05/01 13:13:42;;;;;;;;;6.67;5.00;;;;;-145.45;100.00;57426.63;6244861;22;45257;-75
2023/05/01 13:16:11;;;;;;;;;9.00;6.00;;;;;-145.45;100.00;57426.63;6244606;22;45414;-75
2023/05/01 13:18:48;;;;;;;;;7.00;6.00;;;;;-145.45;100.00;57426.63;6244625;22;45233;-75
2023/05/01 13:21:16;;;;;;;;;6.67;6.67;;;;;-145.45;100.00;57426.63;6244234;22;45174;-75
2023/05/01 13:23:50;;;;;;;;;7.67;5.33;;;;;-145.45;100.00;57426.63;6244962;22;45573;-75
2023/05/01 13:26:16;;;;;;;;;7.33;7.33;;;;;-145.45;100.00;57426.63;6244847;22;45451;-75
2023/05/01 13:28:46;;;;;;;;;5.33;5.33;;;;;-145.45;100.00;57426.63;6243963;22;46999;-74
2023/05/01 13:31:14;;;;;;;;;6.67;5.00;;;;;-145.45;100.00;57426.63;6243994;22;45220;-75
2023/05/01 13:33:42;;;;;;;;;6.00;5.00;;;;;-145.45;100.00;57426.63;6244886;22;45308;-74
2023/05/01 13:36:08;;;;;;;;;5.00;3.33;;;;;-145.45;100.00;57426.63;6244816;22;45389;-74
2023/05/01 13:38:41;;;;;;;;;5.67;5.33;;;;;-145.45;100.00;57426.63;6244864;22;46438;-80
2023/05/01 13:41:07;;;;;;;;;5.00;5.00;;;;;-145.45;100.00;57426.63;6242985;22;45312;-75
2023/05/01 13:43:33;;;;;;;;;5.67;5.33;;;;;-145.45;100.00;57426.63;6216592;22;45917;-75
2023/05/01 13:45:59;;;;;;;;;9.67;7.00;;;;;-145.45;100.00;57426.63;6217611;22;45812;-74
2023/05/01 13:48:24;;;;;;;;;6.00;4.67;;;;;-145.45;100.00;57426.63;6245113;22;45292;-75
2023/05/01 13:50:50;;;;;;;;;4.33;4.33;;;;;-145.45;100.00;57426.63;6245014;22;45163;-74
2023/05/01 13:53:15;;;;;;;;;7.67;6.33;;;;;-145.45;100.00;57426.63;6245977;22;45199;-74
2023/05/01 13:55:41;;;;;;;;;6.00;4.33;;;;;-145.45;100.00;57426.63;6242694;22;45693;-75
2023/05/01 13:58:06;;;;;;;;;6.00;3.00;;;;;-145.45;100.00;57426.63;6244243;22;45211;-76
2023/05/01 14:00:32;;;;;;;;;7.67;7.67;;;;;-145.45;100.00;57426.63;6245715;22;45288;-74
2023/05/01 14:02:58;;;;;;;;;13.33;10.33;;;;;-145.45;100.00;57426.63;6245761;22;45566;-74
2023/05/01 14:05:29;;;;;;;;;11.33;9.67;;;;;-145.45;100.00;57426.63;6244453;22;45975;-75
2023/05/01 14:07:57;;;;;;;;;13.67;13.00;;;;;-145.45;100.00;57426.63;6246362;22;46025;-74
2023/05/01 14:10:26;;;;;;;;;15.67;13.67;;;;;-145.45;100.00;57426.63;6246975;22;45098;-75
2023/05/01 14:12:57;;;;;;;;;16.67;14.33;;;;;-145.45;100.00;57426.63;6219327;22;45320;-75
2023/05/01 14:15:25;;;;;;;;;14.00;13.33;;;;;-145.45;100.00;57426.63;6246197;22;45699;-74
2023/05/01 14:17:54;;;;;;;;;12.67;12.00;;;;;-145.45;100.00;57426.63;6218926;22;47353;-74
2023/05/01 14:20:19;;;;;;;;;16.67;13.67;;;;;-145.45;100.00;57426.63;6246145;22;45269;-73
2023/05/01 14:22:52;;;;;;;;;17.33;15.33;;;;;-145.45;100.00;57426.63;6246923;22;45260;-74
2023/05/01 14:25:29;;;;;;;;;16.00;13.67;;;;;-145.45;100.00;57426.63;6245496;22;45408;-72
2023/05/01 14:27:55;;;;;;;;;14.00;13.00;;;;;-145.45;100.00;57426.63;6244771;22;45537;-72
2023/05/01 14:30:32;;;;;;;;;17.00;14.67;;;;;-145.45;100.00;57426.63;6246564;22;45252;-72
2023/05/01 14:33:01;;;;;;;;;12.00;12.00;;;;;-145.45;100.00;57426.63;6246590;22;45249;-72
2023/05/01 14:35:26;;;;;;;;;20.33;14.00;;;;;-145.45;100.00;57426.63;6244411;22;45434;-72
2023/05/01 14:37:52;;;;;;;;;12.33;12.33;;;;;-145.45;100.00;57426.63;6218699;22;45842;-71
2023/05/01 14:40:24;;;;;;;;;15.67;15.00;;;;;-145.45;100.00;57426.63;6245895;22;45253;-72
2023/05/01 14:42:50;;;;;;;;;16.33;15.00;;;;;-145.45;100.00;57426.63;6246339;22;45213;-71
2023/05/01 14:45:16;;;;;;;;;14.33;13.67;;;;;-145.45;100.00;57426.63;6245941;22;45381;-72
2023/05/01 14:47:45;;;;;;;;;15.33;14.00;;;;;-145.45;100.00;57426.63;6246103;22;45299;-72
2023/05/01 14:50:14;;;;;;;;;15.00;13.00;;;;;-145.45;100.00;57426.63;6246889;22;45214;-71
2023/05/01 14:52:40;;;;;;;;;15.67;12.00;;;;;-145.45;100.00;57426.63;6247317;22;45272;-71
2023/05/01 14:55:07;;;;;;;;;12.33;10.33;;;;;-145.45;100.00;57426.63;6246235;22;45204;-71
2023/05/01 14:57:32;;;;;;;;;11.33;8.33;;;;;-145.45;100.00;57426.63;6218329;22;46292;-71
2023/05/01 14:59:57;;;;;;;;;10.00;10.00;;;;;-145.45;100.00;57426.63;6246113;22;45557;-71
2023/05/01 15:02:23;;;;;;;;;15.00;11.67;;;;;-145.45;100.00;57426.63;6246759;22;45221;-71
2023/05/01 15:04:48;;;;;;;;;12.00;11.33;;;;;-145.45;100.00;57426.63;6246694;22;45273;-71
2023/05/01 15:07:14;;;;;;;;;10.67;10.33;;;;;-145.45;100.00;57426.63;6246281;22;46471;-71
2023/05/01 15:09:42;;;;;;;;;7.00;7.00;;;;;-145.45;100.00;57426.63;6218524;22;45326;-72
2023/05/01 15:12:08;;;;;;;;;11.67;11.67;;;;;-145.45;100.00;57426.63;6246016;22;45233;-71
2023/05/01 15:14:34;;;;;;;;;16.33;12.00;;;;;-145.45;100.00;57426.63;6246297;22;45328;-71
2023/05/01 15:16:59;;;;;;;;;12.33;9.67;;;;;-145.45;100.00;57426.63;6245686;22;46701;-71
2023/05/01 15:19:25;;;;;;;;;10.33;9.33;;;;;-145.45;100.00;57426.63;6244631;22;45328;-71
2023/05/01 15:21:50;;;;;;;;;10.67;10.67;;;;;-145.45;100.00;57426.63;6246430;22;45507;-72
2023/05/01 15:24:18;;;;;;;;;11.33;8.67;;;;;-145.45;100.00;57426.63;6246800;22;45273;-72
2023/05/01 15:26:43;;;;;;;;;11.67;9.33;;;;;-145.45;100.00;57426.63;6218318;22;47424;-72
2023/05/01 15:29:09;;;;;;;;;11.00;10.00;;;;;-145.45;100.00;57426.63;6246151;22;45245;-72
2023/05/01 15:31:34;;;;;;;;;11.67;11.67;;;;;-145.45;100.00;57426.63;6219108;22;45259;-71
2023/05/01 15:34:00;;;;;;;;;11.00;10.00;;;;;-145.45;100.00;57426.63;6247014;22;46202;-71
2023/05/01 15:36:25;;;;;;;;;9.67;9.00;;;;;-145.45;100.00;57426.63;6245294;22;45361;-71
2023/05/01 15:38:51;;;;;;;;;7.00;7.00;;;;;-145.45;100.00;57426.63;6219338;22;45210;-71
2023/05/01 15:41:16;;;;;;;;;9.67;8.00;;;;;-145.45;100.00;57426.63;6245314;22;45153;-72
2023/05/01 15:43:41;;;;;;;;;10.67;6.67;;;;;-145.45;100.00;57426.63;6246562;22;45159;-71
2023/05/01 15:46:07;;;;;;;;;8.33;6.67;;;;;-145.45;100.00;57426.63;6246185;22;46089;-71
2023/05/01 15:48:32;;;;;;;;;7.67;5.67;;;;;-145.45;100.00;57426.63;6245635;22;48452;-71
2023/05/01 15:50:57;;;;;;;;;5.33;5.33;;;;;-145.45;100.00;57426.63;6245818;22;45240;-71
2023/05/01 15:53:23;;;;;;;;;6.33;6.33;;;;;-145.45;100.00;57426.63;6245506;22;45182;-71
2023/05/01 15:55:48;;;;;;;;;7.00;5.67;;;;;-145.45;100.00;57426.63;6243920;22;45900;-71
2023/05/01 15:58:14;;;;;;;;;8.00;6.00;;;;;-145.45;100.00;57426.63;6244943;22;45358;-72
2023/05/01 16:00:40;;;;;;;;;8.00;7.67;;;;;-145.45;100.00;57426.63;6244625;22;45282;-72
2023/05/01 16:03:06;;;;;;;;;7.00;6.00;;;;;-145.45;100.00;57426.63;6245216;22;45209;-73
2023/05/01 16:05:32;;;;;;;;;9.00;6.67;;;;;-145.45;100.00;57426.63;6216754;22;47916;-72
2023/05/01 16:07:59;;;;;;;;;3.33;0.67;;;;;-145.45;100.00;57426.63;6246490;22;45234;-71
2023/05/01 16:10:25;;;;;;;;;7.00;6.00;;;;;-145.45;100.00;57426.63;6245982;22;45288;-71
2023/05/01 16:12:53;;;;;;;;;7.67;6.00;;;;;-145.45;100.00;57426.63;6246321;22;45185;-71
2023/05/01 16:15:18;;;;;;;;;4.67;4.67;;;;;-145.45;100.00;57426.63;6244630;22;46249;-72
2023/05/01 16:17:44;;;;;;;;;6.00;6.00;;;;;-145.45;100.00;57426.63;6246994;22;45269;-71
2023/05/01 16:20:11;;;;;;;;;6.00;5.00;;;;;-145.45;100.00;57426.63;6247446;22;45225;-72
2023/05/01 16:22:39;;;;;;;;;7.00;7.00;;;;;-145.45;100.00;57426.63;6245738;22;45320;-72
2023/05/01 16:25:06;;;;;;;;;7.00;7.00;;;;;-145.45;100.00;57426.63;6245688;22;46327;-71
2023/05/01 16:27:32;;;;;;;;;7.67;6.67;;;;;-145.45;100.00;57426.63;6245578;22;45169;-71
2023/05/01 16:29:57;;;;;;;;;9.00;7.33;;;;;-145.45;100.00;57426.63;6246073;22;45086;-71
2023/05/01 16:32:23;;;;;;;;;10.00;7.00;;;;;-145.45;100.00;57426.63;6245483;22;45458;-72
2023/05/01 16:34:48;;;;;;;;;6.67;6.67;;;;;-145.45;100.00;57426.63;6246152;22;45241;-71
2023/05/01 16:37:16;;;;;;;;;7.67;7.67;;;;;-145.45;100.00;57426.63;6245918;22;45086;-72
2023/05/01 16:39:42;;;;;;;;;10.33;10.33;;;;;-145.45;100.00;57426.63;6246636;22;45214;-72
2023/05/01 16:42:11;;;;;;;;;12.00;9.67;;;;;-145.45;100.00;57426.63;6217601;22;45447;-71
2023/05/01 16:44:36;;;;;;;;;10.00;7.33;;;;;-145.45;100.00;57426.63;6246042;22;46297;-72
2023/05/01 16:47:03;;;;;;;;;10.33;8.00;;;;;-145.45;100.00;57426.63;6245926;22;45258;-71
2023/05/01 16:49:29;;;;;;;;;13.33;11.00;;;;;-145.45;100.00;57426.63;6245909;22;45220;-71
2023/05/01 16:51:56;;;;;;;;;10.67;10.33;;;;;-145.45;100.00;57426.63;6218266;22;45603;-71
2023/05/01 16:54:22;;;;;;;;;9.00;9.00;;;;;-145.45;100.00;57426.63;6218543;22;46704;-71
2023/05/01 16:56:48;;;;;;;;;11.33;9.00;;;;;-145.45;100.00;57426.63;6245236;22;45385;-71
2023/05/01 16:59:13;;;;;;;;;10.33;9.00;;;;;-145.45;100.00;57426.63;6218991;22;45270;-71
2023/05/01 17:01:38;;;;;;;;;6.67;4.33;;;;;-145.45;100.00;57426.63;6245760;22;45560;-72
2023/05/01 17:04:04;;;;;;;;;12.00;10.67;;;;;-145.45;100.00;57426.63;6244697;22;45281;-71
2023/05/01 17:06:30;;;;;;;;;8.00;8.00;;;;;-145.45;100.00;57426.63;6245938;22;45249;-70
2023/05/01 17:08:55;;;;;;;;;12.33;8.67;;;;;-145.45;100.00;57426.63;6246336;22;45300;-70
2023/05/01 17:11:23;;;;;;;;;13.33;11.33;;;;;-145.45;100.00;57426.63;6244963;22;56727;-73
2023/05/01 17:13:49;;;;;;;;;11.00;9.00;;;;;-145.45;100.00;57426.63;6246025;22;45296;-72
2023/05/01 17:16:15;;;;;;;;;10.00;10.00;;;;;-145.45;100.00;57426.63;6245740;22;45115;-71
2023/05/01 17:18:40;;;;;;;;;12.33;11.33;;;;;-145.45;100.00;57426.63;6246272;22;45889;-72
2023/05/01 17:21:05;;;;;;;;;13.33;10.00;;;;;-145.45;100.00;57426.63;6246034;22;45273;-73
2023/05/01 17:23:31;;;;;;;;;12.00;12.00;;;;;-145.45;100.00;57426.63;6218556;22;45582;-72
2023/05/01 17:25:56;;;;;;;;;13.33;11.00;;;;;-145.45;100.00;57426.63;6245322;22;45236;-73
2023/05/01 17:28:23;;;;;;;;;13.33;12.67;;;;;-145.45;100.00;57426.63;6246447;22;45372;-72
2023/05/01 17:30:48;;;;;;;;;10.00;10.00;;;;;-145.45;100.00;57426.63;6245387;22;45321;-72
2023/05/01 17:33:14;;;;;;;;;15.67;12.67;;;;;-145.45;100.00;57426.63;6245790;22;46150;-73
2023/05/01 17:35:39;;;;;;;;;12.67;12.33;;;;;-145.45;100.00;57426.63;6245684;22;45304;-71
2023/05/01 17:38:04;;;;;;;;;16.00;12.33;;;;;-145.45;100.00;57426.63;6246232;22;45195;-72
2023/05/01 17:40:31;;;;;;;;;17.00;12.67;;;;;-145.45;100.00;57426.63;6245273;22;45166;-72